createdAt,value
2019-01-19T00:00:17.024Z,-5.40
2019-01-19T00:03:54.935Z,-5.35
2019-01-19T00:07:04.091Z,-5.32
2019-01-19T00:10:10.572Z,-5.38
2019-01-19T00:13:27.810Z,-5.41
2019-01-19T00:16:27.832Z,-5.45
2019-01-19T00:20:06.604Z,-5.57
2019-01-19T00:23:43.261Z,-5.63
2019-01-19T00:27:06.654Z,-5.66
2019-01-19T00:30:33.954Z,-5.69
2019-01-19T00:34:03.271Z,-5.72
2019-01-19T00:37:27.955Z,-5.74
2019-01-19T00:41:08.030Z,-5.81
2019-01-19T00:44:29.536Z,-5.76
2019-01-19T00:47:21.417Z,-5.87
2019-01-19T00:50:31.245Z,-5.88
2019-01-19T00:53:36.605Z,-5.83
2019-01-19T00:56:43.539Z,-5.92
2019-01-19T00:59:28.007Z,-5.93
2019-01-19T01:03:03.624Z,-6.03
2019-01-19T01:06:27.628Z,-6.09
2019-01-19T01:09:56.651Z,-6.18
2019-01-19T01:13:31.634Z,-6.19
2019-01-19T01:16:56.751Z,-6.09
2019-01-19T01:20:33.166Z,-6.16
2019-01-19T01:23:47.739Z,-6.13
2019-01-19T01:27:02.652Z,-6.22
2019-01-19T01:30:51.789Z,-6.18
2019-01-19T01:34:25.941Z,-6.22
2019-01-19T01:37:53.254Z,-6.26
2019-01-19T01:40:59.374Z,-6.31
2019-01-19T01:44:31.467Z,-6.40
2019-01-19T01:47:57.938Z,-6.40
2019-01-19T01:50:58.839Z,-6.43
2019-01-19T01:54:20.924Z,-6.41
2019-01-19T01:56:52.897Z,-6.51
2019-01-19T01:59:49.013Z,-6.47
2019-01-19T02:03:04.925Z,-6.52
2019-01-19T02:05:50.351Z,-6.62
2019-01-19T02:09:19.976Z,-6.50
2019-01-19T02:12:49.272Z,-6.49
2019-01-19T02:16:41.029Z,-6.64
2019-01-19T02:20:15.049Z,-6.57
2019-01-19T02:24:05.610Z,-6.53
2019-01-19T02:27:54.776Z,-6.56
2019-01-19T02:31:25.524Z,-6.53
2019-01-19T02:34:22.279Z,-6.54
2019-01-19T02:37:30.314Z,-6.56
2019-01-19T02:40:51.556Z,-6.60
2019-01-19T02:44:26.711Z,-6.68
2019-01-19T02:47:54.095Z,-6.55
2019-01-19T02:50:43.304Z,-6.50
2019-01-19T02:53:57.729Z,-6.55
2019-01-19T02:57:44.001Z,-6.52
2019-01-19T03:00:52.943Z,-6.56
2019-01-19T03:04:17.615Z,-6.68
2019-01-19T03:07:44.796Z,-6.74
2019-01-19T03:11:07.374Z,-6.80
2019-01-19T03:14:38.136Z,-6.62
2019-01-19T03:18:13.997Z,-6.70
2019-01-19T03:21:10.893Z,-6.84
2019-01-19T03:24:28.533Z,-6.86
2019-01-19T03:28:01.614Z,-6.81
2019-01-19T03:31:27.176Z,-6.77
2019-01-19T03:34:48.003Z,-6.61
2019-01-19T03:38:16.024Z,-6.75
2019-01-19T03:41:26.455Z,-6.84
2019-01-19T03:44:49.527Z,-6.80
2019-01-19T03:48:47.697Z,-6.85
2019-01-19T03:51:49.039Z,-6.90
2019-01-19T03:54:59.546Z,-6.96
2019-01-19T03:58:15.810Z,-6.89
2019-01-19T04:01:42.074Z,-6.83
2019-01-19T04:05:38.073Z,-7.07
2019-01-19T04:08:52.197Z,-7.06
2019-01-19T04:12:35.539Z,-7.04
2019-01-19T04:15:55.931Z,-7.01
2019-01-19T04:19:06.021Z,-7.13
2019-01-19T04:22:36.977Z,-7.27
2019-01-19T04:25:42.704Z,-7.43
2019-01-19T04:28:18.470Z,-7.39
2019-01-19T04:30:50.424Z,-7.31
2019-01-19T04:33:23.054Z,-7.24
2019-01-19T04:35:55.386Z,-7.30
2019-01-19T04:38:27.599Z,-7.34
2019-01-19T04:40:59.918Z,-7.33
2019-01-19T04:43:31.959Z,-7.29
2019-01-19T04:46:04.047Z,-7.41
2019-01-19T04:48:36.502Z,-7.46
2019-01-19T04:51:08.863Z,-7.50
2019-01-19T04:53:40.905Z,-7.41
2019-01-19T04:56:13.058Z,-7.39
2019-01-19T04:58:45.118Z,-7.41
2019-01-19T05:01:16.852Z,-7.45
2019-01-19T05:03:48.689Z,-7.47
2019-01-19T05:06:20.522Z,-7.62
2019-01-19T05:08:52.735Z,-7.53
2019-01-19T05:11:24.746Z,-7.57
2019-01-19T05:13:56.509Z,-7.61
2019-01-19T05:16:28.357Z,-7.75
2019-01-19T05:19:00.124Z,-7.70
2019-01-19T05:21:32.071Z,-7.71
2019-01-19T05:24:03.840Z,-7.73
2019-01-19T05:26:35.631Z,-7.69
2019-01-19T05:29:07.712Z,-7.72
2019-01-19T05:31:39.475Z,-7.72
2019-01-19T05:34:11.307Z,-7.64
2019-01-19T05:36:43.055Z,-7.66
2019-01-19T05:39:14.820Z,-7.69
2019-01-19T05:41:46.585Z,-7.84
2019-01-19T05:44:18.364Z,-7.68
2019-01-19T05:46:50.124Z,-7.81
2019-01-19T05:49:21.893Z,-7.65
2019-01-19T05:51:53.635Z,-7.71
2019-01-19T05:54:25.476Z,-7.81
2019-01-19T05:56:57.366Z,-7.67
2019-01-19T05:59:29.516Z,-7.65
2019-01-19T06:02:01.707Z,-7.55
2019-01-19T06:04:33.503Z,-7.61
2019-01-19T06:07:05.291Z,-7.59
2019-01-19T06:09:37.056Z,-7.67
2019-01-19T06:12:08.866Z,-7.65
2019-01-19T06:14:40.632Z,-7.60
2019-01-19T06:17:12.377Z,-7.71
2019-01-19T06:19:45.169Z,-7.73
2019-01-19T06:22:18.198Z,-7.75
2019-01-19T06:24:49.081Z,-7.72
2019-01-19T06:27:21.104Z,-7.78
2019-01-19T06:29:53.142Z,-7.88
2019-01-19T06:32:24.889Z,-7.88
2019-01-19T06:34:56.691Z,-7.84
2019-01-19T06:37:28.415Z,-7.86
2019-01-19T06:40:00.297Z,-7.80
2019-01-19T06:42:32.544Z,-7.79
2019-01-19T06:45:04.592Z,-7.74
2019-01-19T06:47:37.097Z,-7.91
2019-01-19T06:50:11.740Z,-8.03
2019-01-19T06:52:43.511Z,-8.08
2019-01-19T06:55:18.935Z,-7.95
2019-01-19T06:57:51.154Z,-7.96
2019-01-19T07:00:23.585Z,-7.95
2019-01-19T07:02:55.936Z,-7.93
2019-01-19T07:05:28.130Z,-8.02
2019-01-19T07:07:59.923Z,-8.07
2019-01-19T07:10:31.803Z,-7.98
2019-01-19T07:13:03.595Z,-8.03
2019-01-19T07:15:35.661Z,-8.07
2019-01-19T07:18:07.417Z,-8.08
2019-01-19T07:20:39.311Z,-8.05
2019-01-19T07:23:11.104Z,-8.03
2019-01-19T07:25:43.604Z,-7.71
2019-01-19T07:28:16.482Z,-7.62
2019-01-19T07:30:48.885Z,-7.73
2019-01-19T07:33:21.111Z,-7.78
2019-01-19T07:35:52.950Z,-7.46
2019-01-19T07:38:24.810Z,-7.57
2019-01-19T07:40:56.597Z,-7.48
2019-01-19T07:43:28.959Z,-7.53
2019-01-19T07:46:01.117Z,-7.55
2019-01-19T07:48:32.886Z,-7.60
2019-01-19T07:51:04.709Z,-7.55
2019-01-19T07:53:36.500Z,-7.28
2019-01-19T07:56:08.309Z,-7.30
2019-01-19T07:58:40.086Z,-7.24
2019-01-19T08:01:11.967Z,-7.02
2019-01-19T08:03:43.706Z,-7.16
2019-01-19T08:06:15.922Z,-7.23
2019-01-19T08:08:48.030Z,-7.08
2019-01-19T08:11:19.794Z,-7.05
2019-01-19T08:13:51.894Z,-7.07
2019-01-19T08:16:24.008Z,-6.96
2019-01-19T08:18:55.753Z,-6.77
2019-01-19T08:21:27.655Z,-6.64
2019-01-19T08:23:59.469Z,-6.52
2019-01-19T08:26:31.262Z,-6.65
2019-01-19T08:29:03.021Z,-6.48
2019-01-19T08:31:34.791Z,-6.51
2019-01-19T08:34:06.551Z,-6.32
2019-01-19T08:36:38.358Z,-6.25
2019-01-19T08:39:10.904Z,-6.11
2019-01-19T08:41:42.959Z,-5.98
2019-01-19T08:44:15.033Z,-5.81
2019-01-19T08:46:46.899Z,-5.57
2019-01-19T08:49:18.693Z,-5.68
2019-01-19T08:51:50.442Z,-5.53
2019-01-19T08:54:22.368Z,-5.24
2019-01-19T08:56:54.110Z,-5.14
2019-01-19T08:59:25.870Z,-5.15
2019-01-19T09:01:57.623Z,-4.92
2019-01-19T09:04:29.606Z,-4.77
2019-01-19T09:07:01.447Z,-4.63
2019-01-19T09:09:33.221Z,-4.55
2019-01-19T09:12:05.415Z,-4.34
2019-01-19T09:14:37.602Z,-4.23
2019-01-19T09:17:09.383Z,-4.11
2019-01-19T09:19:41.173Z,-4.11
2019-01-19T09:22:12.964Z,-3.82
2019-01-19T09:24:44.795Z,-3.73
2019-01-19T09:27:16.656Z,-3.57
2019-01-19T09:29:48.417Z,-3.41
2019-01-19T09:32:20.565Z,-3.32
2019-01-19T09:34:52.612Z,-3.33
2019-01-19T09:37:24.487Z,-3.30
2019-01-19T09:39:56.850Z,-3.08
2019-01-19T09:42:28.918Z,-3.02
2019-01-19T09:45:00.674Z,-3.01
2019-01-19T09:47:32.466Z,-2.86
2019-01-19T09:50:05.033Z,-2.62
2019-01-19T09:52:37.198Z,-2.62
2019-01-19T09:55:09.460Z,-2.49
2019-01-19T09:57:41.644Z,-2.43
2019-01-19T10:00:16.674Z,-2.22
2019-01-19T10:02:48.477Z,-1.88
2019-01-19T10:05:22.286Z,-2.12
2019-01-19T10:07:55.729Z,-2.13
2019-01-19T10:10:27.550Z,-2.00
2019-01-19T10:12:59.340Z,-1.81
2019-01-19T10:15:31.137Z,-1.66
2019-01-19T10:18:02.924Z,-1.52
2019-01-19T10:20:35.110Z,-1.19
2019-01-19T10:23:07.300Z,-1.10
2019-01-19T10:25:39.405Z,-1.13
2019-01-19T10:28:11.203Z,-0.96
2019-01-19T10:30:43.429Z,-0.85
2019-01-19T10:33:15.494Z,-0.36
2019-01-19T10:35:47.297Z,-0.41
2019-01-19T10:38:19.363Z,-0.13
2019-01-19T10:40:51.337Z,0.08
2019-01-19T10:43:23.495Z,0.49
2019-01-19T10:45:55.350Z,0.73
2019-01-19T10:48:27.507Z,0.75
2019-01-19T10:51:00.307Z,0.72
2019-01-19T10:53:33.362Z,0.64
2019-01-19T10:56:06.484Z,0.99
2019-01-19T10:58:38.254Z,0.92
2019-01-19T11:01:10.026Z,0.64
2019-01-19T11:03:41.811Z,0.66
2019-01-19T11:06:13.586Z,0.34
2019-01-19T11:08:45.415Z,1.05
2019-01-19T11:11:17.154Z,1.00
2019-01-19T11:13:49.099Z,1.39
2019-01-19T11:16:20.879Z,1.46
2019-01-19T11:18:52.751Z,1.49
2019-01-19T11:21:24.877Z,1.42
2019-01-19T11:23:56.633Z,1.31
2019-01-19T11:26:28.391Z,1.49
2019-01-19T11:29:00.805Z,2.04
2019-01-19T11:31:33.142Z,1.79
2019-01-19T11:34:05.599Z,1.63
2019-01-19T11:36:39.074Z,2.01
2019-01-19T11:39:10.844Z,1.42
2019-01-19T11:41:43.161Z,2.07
2019-01-19T11:44:15.509Z,1.90
2019-01-19T11:46:47.841Z,2.13
2019-01-19T11:49:20.161Z,2.42
2019-01-19T11:51:52.490Z,2.57
2019-01-19T11:54:25.081Z,2.98
2019-01-19T11:56:56.864Z,2.68
2019-01-19T11:59:29.194Z,2.37
2019-01-19T12:02:01.790Z,3.14
2019-01-19T12:04:33.659Z,2.99
2019-01-19T12:07:06.156Z,3.36
2019-01-19T12:09:38.475Z,2.88
2019-01-19T12:12:10.780Z,2.40
2019-01-19T12:14:43.143Z,2.74
2019-01-19T12:17:15.515Z,3.26
2019-01-19T12:19:48.289Z,2.78
2019-01-19T12:22:20.347Z,3.60
2019-01-19T12:24:52.732Z,3.64
2019-01-19T12:27:25.139Z,3.31
2019-01-19T12:29:57.466Z,3.72
2019-01-19T12:32:29.834Z,3.24
2019-01-19T12:35:02.225Z,3.78
2019-01-19T12:37:34.602Z,3.24
2019-01-19T12:40:08.869Z,3.15
2019-01-19T12:42:41.674Z,3.66
2019-01-19T12:45:21.421Z,3.76
2019-01-19T12:47:54.303Z,3.30
2019-01-19T12:50:28.576Z,3.34
2019-01-19T12:53:01.395Z,3.61
2019-01-19T12:55:33.457Z,3.47
2019-01-19T12:58:07.367Z,3.52
2019-01-19T13:00:39.784Z,3.83
2019-01-19T13:03:12.282Z,3.67
2019-01-19T13:06:13.425Z,3.41
2019-01-19T13:08:46.095Z,3.36
2019-01-19T13:11:36.951Z,3.46
2019-01-19T13:14:09.336Z,3.63
2019-01-19T13:17:55.802Z,3.57
2019-01-19T13:21:55.155Z,3.86
2019-01-19T13:24:53.736Z,3.96
2019-01-19T13:28:06.308Z,3.41
2019-01-19T13:31:17.326Z,3.36
2019-01-19T13:35:05.179Z,3.31
2019-01-19T13:38:23.589Z,3.12
2019-01-19T13:42:19.521Z,3.07
2019-01-19T13:45:47.043Z,3.21
2019-01-19T13:49:03.225Z,3.37
2019-01-19T13:52:23.161Z,3.72
2019-01-19T13:55:44.559Z,3.73
2019-01-19T13:58:44.746Z,3.79
2019-01-19T14:02:07.133Z,3.68
2019-01-19T14:05:34.967Z,3.32
2019-01-19T14:09:15.915Z,3.49
2019-01-19T14:12:42.193Z,3.68
2019-01-19T14:16:04.176Z,3.41
2019-01-19T14:19:34.314Z,3.49
2019-01-19T14:23:19.437Z,3.45
2019-01-19T14:26:41.212Z,3.39
2019-01-19T14:30:23.328Z,3.19
2019-01-19T14:33:37.537Z,3.09
2019-01-19T14:36:28.118Z,2.72
2019-01-19T14:40:00.693Z,2.99
2019-01-19T14:43:43.521Z,2.79
2019-01-19T14:47:18.832Z,2.48
2019-01-19T14:50:31.988Z,2.31
2019-01-19T14:53:50.743Z,2.22
2019-01-19T14:57:13.136Z,1.97
2019-01-19T15:00:57.649Z,1.98
2019-01-19T15:04:24.524Z,1.87
2019-01-19T15:07:59.155Z,1.93
2019-01-19T15:11:11.987Z,1.80
2019-01-19T15:14:45.463Z,1.59
2019-01-19T15:18:17.507Z,1.39
2019-01-19T15:21:39.226Z,1.27
2019-01-19T15:25:02.777Z,1.04
2019-01-19T15:28:32.023Z,0.92
2019-01-19T15:31:49.051Z,0.86
2019-01-19T15:35:22.256Z,0.76
2019-01-19T15:38:50.324Z,0.63
2019-01-19T15:42:10.152Z,0.51
2019-01-19T15:45:40.787Z,0.44
2019-01-19T15:48:56.622Z,0.29
2019-01-19T15:52:11.571Z,0.17
2019-01-19T15:55:16.672Z,0.04
2019-01-19T15:58:36.487Z,-0.16
2019-01-19T16:02:13.449Z,-0.32
2019-01-19T16:05:39.896Z,-0.48
2019-01-19T16:09:18.066Z,-0.72
2019-01-19T16:13:02.948Z,-0.91
2019-01-19T16:16:28.328Z,-1.12
2019-01-19T16:19:43.636Z,-1.23
2019-01-19T16:23:20.534Z,-1.27
2019-01-19T16:27:02.669Z,-1.25
2019-01-19T16:30:12.326Z,-1.24
2019-01-19T16:33:35.819Z,-1.34
2019-01-19T16:36:56.710Z,-1.27
2019-01-19T16:40:16.500Z,-1.26
2019-01-19T16:43:25.545Z,-1.40
2019-01-19T16:47:00.607Z,-1.40
2019-01-19T16:50:19.554Z,-1.48
2019-01-19T16:53:33.912Z,-1.61
2019-01-19T16:57:13.750Z,-1.68
2019-01-19T17:01:19.112Z,-1.81
2019-01-19T17:04:45.652Z,-1.75
2019-01-19T17:08:02.951Z,-1.74
2019-01-19T17:11:19.573Z,-1.91
2019-01-19T17:15:02.449Z,-1.78
2019-01-19T17:18:15.297Z,-1.90
2019-01-19T17:21:36.655Z,-2.09
2019-01-19T17:25:00.722Z,-1.99
2019-01-19T17:28:34.621Z,-2.13
2019-01-19T17:31:45.839Z,-2.15
2019-01-19T17:35:07.735Z,-2.36
2019-01-19T17:38:33.237Z,-2.30
2019-01-19T17:42:13.538Z,-2.43
2019-01-19T17:45:18.751Z,-2.28
2019-01-19T17:48:35.200Z,-2.38
2019-01-19T17:52:18.236Z,-2.35
2019-01-19T17:55:26.055Z,-2.32
2019-01-19T17:59:03.075Z,-2.18
2019-01-19T18:02:42.879Z,-2.38
2019-01-19T18:05:52.783Z,-2.46
2019-01-19T18:09:13.145Z,-2.51
2019-01-19T18:12:35.327Z,-2.51
2019-01-19T18:16:25.672Z,-2.57
2019-01-19T18:19:35.886Z,-2.61
2019-01-19T18:22:48.411Z,-2.58
2019-01-19T18:26:32.186Z,-2.74
2019-01-19T18:29:34.438Z,-2.50
2019-01-19T18:33:03.628Z,-2.60
2019-01-19T18:36:09.694Z,-2.86
2019-01-19T18:39:30.509Z,-3.11
2019-01-19T18:42:54.905Z,-3.16
2019-01-19T18:45:53.793Z,-3.23
2019-01-19T18:49:39.272Z,-3.30
2019-01-19T18:52:42.233Z,-3.35
2019-01-19T18:55:49.591Z,-3.39
2019-01-19T18:59:05.657Z,-3.36
2019-01-19T19:02:29.450Z,-3.33
2019-01-19T19:05:31.816Z,-3.58
2019-01-19T19:08:57.349Z,-3.72
2019-01-19T19:12:53.760Z,-3.77
2019-01-19T19:16:17.300Z,-3.71
2019-01-19T19:20:02.301Z,-3.60
2019-01-19T19:23:07.222Z,-3.85
2019-01-19T19:26:35.419Z,-3.82
2019-01-19T19:29:52.057Z,-3.70
2019-01-19T19:33:18.868Z,-3.74
2019-01-19T19:36:37.798Z,-3.71
2019-01-19T19:40:15.853Z,-3.63
2019-01-19T19:43:25.538Z,-3.60
2019-01-19T19:47:00.717Z,-3.46
2019-01-19T19:50:21.778Z,-3.63
2019-01-19T19:52:53.734Z,-3.70
2019-01-19T19:55:23.304Z,-3.79
2019-01-19T19:57:55.523Z,-3.70
2019-01-19T20:00:27.867Z,-3.88
2019-01-19T20:03:00.339Z,-3.83
2019-01-19T20:05:32.586Z,-3.80
2019-01-19T20:08:05.371Z,-4.10
2019-01-19T20:10:38.016Z,-4.15
2019-01-19T20:13:10.245Z,-4.17
2019-01-19T20:15:42.324Z,-4.18
2019-01-19T20:18:14.370Z,-4.12
2019-01-19T20:20:46.511Z,-4.21
2019-01-19T20:23:18.649Z,-4.23
2019-01-19T20:25:51.825Z,-4.20
2019-01-19T20:28:24.324Z,-4.30
2019-01-19T20:30:57.212Z,-4.24
2019-01-19T20:33:30.252Z,-4.29
2019-01-19T20:36:03.168Z,-4.39
2019-01-19T20:38:36.210Z,-4.29
2019-01-19T20:41:08.638Z,-4.28
2019-01-19T20:43:41.322Z,-4.30
2019-01-19T20:46:13.751Z,-4.18
2019-01-19T20:48:46.554Z,-4.34
2019-01-19T20:51:18.997Z,-4.56
2019-01-19T20:53:52.285Z,-4.53
2019-01-19T20:56:24.429Z,-4.56
2019-01-19T20:58:56.417Z,-4.58
2019-01-19T21:01:28.587Z,-4.35
2019-01-19T21:04:01.657Z,-4.43
2019-01-19T21:06:33.772Z,-4.37
2019-01-19T21:09:10.956Z,-4.36
2019-01-19T21:11:43.127Z,-4.23
2019-01-19T21:14:15.883Z,-4.15
2019-01-19T21:16:47.938Z,-4.22
2019-01-19T21:19:19.784Z,-3.99
2019-01-19T21:21:51.679Z,-4.18
2019-01-19T21:24:23.422Z,-4.28
2019-01-19T21:26:55.213Z,-4.02
2019-01-19T21:29:27.260Z,-4.10
2019-01-19T21:31:59.535Z,-4.36
2019-01-19T21:34:31.568Z,-4.39
2019-01-19T21:37:03.348Z,-4.47
2019-01-19T21:39:35.263Z,-4.62
2019-01-19T21:42:07.036Z,-4.51
2019-01-19T21:44:38.790Z,-4.48
2019-01-19T21:47:10.664Z,-4.62
2019-01-19T21:49:42.583Z,-4.61
2019-01-19T21:52:14.423Z,-4.47
2019-01-19T21:54:46.220Z,-4.52
2019-01-19T21:57:18.115Z,-4.65
2019-01-19T21:59:49.886Z,-4.71
2019-01-19T22:02:21.661Z,-4.58
2019-01-19T22:04:53.409Z,-4.79
2019-01-19T22:07:25.235Z,-4.60
2019-01-19T22:09:56.961Z,-4.71
2019-01-19T22:12:28.871Z,-4.82
2019-01-19T22:15:00.651Z,-4.84
2019-01-19T22:17:39.342Z,-4.73
2019-01-19T22:20:07.045Z,-4.69
2019-01-19T22:22:38.854Z,-4.89
2019-01-19T22:25:10.701Z,-5.02
2019-01-19T22:27:47.751Z,-4.90
2019-01-19T22:30:22.706Z,-4.95
2019-01-19T22:32:56.251Z,-5.21
2019-01-19T22:35:29.967Z,-5.13
2019-01-19T22:38:02.176Z,-5.10
2019-01-19T22:40:34.244Z,-4.79
2019-01-19T22:43:10.437Z,-4.73
2019-01-19T22:45:42.956Z,-4.93
2019-01-19T22:48:15.661Z,-5.07
2019-01-19T22:50:47.831Z,-5.12
2019-01-19T22:53:19.572Z,-5.21
2019-01-19T22:55:51.437Z,-5.27
2019-01-19T22:58:23.315Z,-5.12
2019-01-19T23:01:21.918Z,-5.28
2019-01-19T23:03:54.140Z,-5.47
2019-01-19T23:06:26.359Z,-5.17
2019-01-19T23:08:58.162Z,-5.21
2019-01-19T23:11:33.965Z,-5.30
2019-01-19T23:14:04.875Z,-5.37
2019-01-19T23:16:36.766Z,-5.16
2019-01-19T23:19:08.507Z,-5.34
2019-01-19T23:21:40.665Z,-5.33
2019-01-19T23:24:12.735Z,-5.27
2019-01-19T23:26:45.279Z,-5.29
2019-01-19T23:29:17.449Z,-5.35
2019-01-19T23:31:49.378Z,-5.12
2019-01-19T23:34:21.498Z,-5.23
2019-01-19T23:36:53.269Z,-5.12
2019-01-19T23:39:27.548Z,-5.11
2019-01-19T23:41:59.310Z,-5.06
2019-01-19T23:44:31.066Z,-5.18
2019-01-19T23:47:02.868Z,-5.31
2019-01-19T23:49:34.610Z,-5.46
2019-01-19T23:52:06.465Z,-5.22
2019-01-19T23:54:38.539Z,-5.47
2019-01-19T23:57:10.381Z,-5.49
2019-01-19T23:59:42.139Z,-5.44
